• Join FlightAware (Why Join?)
  • Login
  • US Flag 
03:55PM EST


 

Airport Tracker/Info


-or-


 

Live Flight TrackerFlight Track Log ✈ CTL18 ✈ 14-May-2013 ✈ KMBS - KYIP

Flight Track Log - Related Links

Times and Time Zones

All times are in EDT time to prevent confusion due to time zone crossing. See the CTL18 flight status page for this flight to view local times or setup timezone preferences in your user account.

Time Position Orientation Groundspeed Altitude Reporting Facility
EDT Latitude Longitude Course Direction KTS MPH feet Rate Location/Type
07:47PM 43.3619 -84.0057 160° South  Level Estimated
07:48PM 43.3366 -83.9838 148° Southeast  Level FlightAware Approximate
07:49PM 43.3080 -83.9718 160° South  Level Estimated
07:50PM 43.2807 -83.9553 156° South  Level FlightAware Approximate
07:51PM 43.2533 -83.9388 156° South  Level FlightAware Approximate
07:52PM 43.2247 -83.9271 163° South  Level Estimated
07:53PM 43.1965 -83.9134 161° South  Level FlightAware Approximate
07:54PM 43.1683 -83.8997 161° South  Level FlightAware Approximate
07:55PM 42.9842 -83.8044 160° South 171 197 5,000  Level Cleveland Center
07:55PM 43.1401 -83.8861 161° South  Level FlightAware Approximate
07:56PM 43.1115 -83.8746 160° South  Level Estimated
07:56PM 42.9408 -83.7853 162° South 171 197 5,000  Level Cleveland Center
07:57PM 43.0835 -83.8603 160° South  Level FlightAware Approximate
07:58PM 43.0555 -83.8461 160° South  Level FlightAware Approximate
07:58PM 42.8483 -83.7436 162° South 165 190 5,100  Level Cleveland Center
07:59PM 43.0275 -83.8318 160° South  Level FlightAware Approximate
07:59PM 42.8028 -83.7300 168° South 165 190 5,100  Level Cleveland Center
07:59PM 42.7614 -83.7167 167° South 169 194 5,000 -180 Descending Cleveland Center
08:00PM 42.9995 -83.8176 160° South  Level FlightAware Approximate
08:01PM 42.7161 -83.7003 165° South 167 192 4,800  Level Cleveland Center
08:02PM 42.6664 -83.6836 166° South 182 209 4,300 -420 Descending Cleveland Center
08:03PM 42.6128 -83.6642 165° South 178 205 4,000 -180 Descending Cleveland Center
08:04PM 42.5611 -83.6475 167° South 169 194 4,000  Level Cleveland Center
08:05PM 42.5178 -83.6342 167° South 167 192 4,100 -120 Climbing Cleveland Center
08:06PM 42.4681 -83.6206 169° South 171 197 3,800 -420 Descending Cleveland Center
08:07PM 42.4161 -83.6094 171° South 179 206 3,300 -300 Descending Cleveland Center
08:08PM 42.3725 -83.6017 172° South 171 197 3,200 -180 Descending Cleveland Center
08:09PM 42.3292 -83.5914 170° South 168 193 3,000 -420 Descending Cleveland Center
08:10PM 42.2750 -83.5831 174° South 168 193 2,400 -660 Descending Cleveland Center
08:11PM 42.2294 -83.5753 173° South 150 173 1,600 -720 Descending Cleveland Center
08:13PM 42.2393 -83.5310 160° South  Level Estimated
08:20PM 42.2393 -83.5310 160° South  Level Estimated
08:21PM 42.2393 -83.5310 160° South  Level Estimated